sensor_id;sensor_type;location;lat;lon;timestamp;P1;durP1;ratioP1;P2;durP2;ratioP2
56419;SDS011;42323;52.170;7.538;2023-10-31T00:01:51;17.95;;;10.32;;
56419;SDS011;42323;52.170;7.538;2023-10-31T00:04:17;15.77;;;9.43;;
56419;SDS011;42323;52.170;7.538;2023-10-31T00:06:44;17.03;;;10.23;;
56419;SDS011;42323;52.170;7.538;2023-10-31T00:09:10;16.37;;;9.77;;
56419;SDS011;42323;52.170;7.538;2023-10-31T00:11:37;16.67;;;9.88;;
56419;SDS011;42323;52.170;7.538;2023-10-31T00:14:03;17.17;;;9.63;;
56419;SDS011;42323;52.170;7.538;2023-10-31T00:16:30;15.85;;;8.93;;
56419;SDS011;42323;52.170;7.538;2023-10-31T00:18:56;15.20;;;8.88;;
56419;SDS011;42323;52.170;7.538;2023-10-31T00:21:23;13.85;;;8.80;;
56419;SDS011;42323;52.170;7.538;2023-10-31T00:23:49;15.10;;;9.02;;
56419;SDS011;42323;52.170;7.538;2023-10-31T00:26:16;15.00;;;9.77;;
56419;SDS011;42323;52.170;7.538;2023-10-31T00:28:42;14.93;;;9.47;;
56419;SDS011;42323;52.170;7.538;2023-10-31T00:31:09;14.37;;;9.33;;
56419;SDS011;42323;52.170;7.538;2023-10-31T00:33:37;15.98;;;9.55;;
56419;SDS011;42323;52.170;7.538;2023-10-31T00:36:04;14.13;;;8.90;;
56419;SDS011;42323;52.170;7.538;2023-10-31T00:38:30;12.98;;;8.48;;
56419;SDS011;42323;52.170;7.538;2023-10-31T00:40:59;14.68;;;8.55;;
56419;SDS011;42323;52.170;7.538;2023-10-31T00:43:26;13.25;;;8.15;;
56419;SDS011;42323;52.170;7.538;2023-10-31T00:45:52;13.23;;;8.50;;
56419;SDS011;42323;52.170;7.538;2023-10-31T00:48:20;14.05;;;8.68;;
56419;SDS011;42323;52.170;7.538;2023-10-31T00:50:46;14.95;;;8.32;;
56419;SDS011;42323;52.170;7.538;2023-10-31T00:53:13;13.10;;;8.45;;
56419;SDS011;42323;52.170;7.538;2023-10-31T00:55:40;14.95;;;8.93;;
56419;SDS011;42323;52.170;7.538;2023-10-31T00:58:07;14.15;;;8.57;;
56419;SDS011;42323;52.170;7.538;2023-10-31T01:00:33;14.98;;;9.10;;
56419;SDS011;42323;52.170;7.538;2023-10-31T01:03:00;13.82;;;8.48;;
56419;SDS011;42323;52.170;7.538;2023-10-31T01:05:27;14.60;;;9.40;;
56419;SDS011;42323;52.170;7.538;2023-10-31T01:07:54;13.98;;;9.05;;
56419;SDS011;42323;52.170;7.538;2023-10-31T01:10:21;16.20;;;9.60;;
56419;SDS011;42323;52.170;7.538;2023-10-31T01:12:47;13.38;;;8.38;;
56419;SDS011;42323;52.170;7.538;2023-10-31T01:15:14;15.00;;;9.45;;
56419;SDS011;42323;52.170;7.538;2023-10-31T01:17:40;15.13;;;9.77;;
56419;SDS011;42323;52.170;7.538;2023-10-31T01:20:07;14.55;;;8.98;;
56419;SDS011;42323;52.170;7.538;2023-10-31T01:22:33;13.45;;;9.00;;
56419;SDS011;42323;52.170;7.538;2023-10-31T01:25:00;12.27;;;8.80;;
56419;SDS011;42323;52.170;7.538;2023-10-31T01:27:26;13.02;;;8.13;;
56419;SDS011;42323;52.170;7.538;2023-10-31T01:29:53;11.82;;;8.15;;
56419;SDS011;42323;52.170;7.538;2023-10-31T01:32:19;10.15;;;7.32;;
56419;SDS011;42323;52.170;7.538;2023-10-31T01:34:48;9.43;;;7.10;;
56419;SDS011;42323;52.170;7.538;2023-10-31T01:37:14;9.82;;;7.05;;
56419;SDS011;42323;52.170;7.538;2023-10-31T01:39:41;10.23;;;7.53;;
56419;SDS011;42323;52.170;7.538;2023-10-31T01:42:08;10.13;;;7.53;;
56419;SDS011;42323;52.170;7.538;2023-10-31T01:44:34;9.85;;;7.15;;
56419;SDS011;42323;52.170;7.538;2023-10-31T01:47:01;9.18;;;6.55;;
56419;SDS011;42323;52.170;7.538;2023-10-31T01:49:27;10.88;;;7.43;;
56419;SDS011;42323;52.170;7.538;2023-10-31T01:51:53;10.43;;;7.57;;
56419;SDS011;42323;52.170;7.538;2023-10-31T01:54:20;9.80;;;6.75;;
56419;SDS011;42323;52.170;7.538;2023-10-31T01:56:46;8.15;;;6.70;;
56419;SDS011;42323;52.170;7.538;2023-10-31T01:59:17;10.20;;;6.20;;
56419;SDS011;42323;52.170;7.538;2023-10-31T02:01:43;8.57;;;6.67;;
56419;SDS011;42323;52.170;7.538;2023-10-31T02:04:10;9.40;;;6.90;;
56419;SDS011;42323;52.170;7.538;2023-10-31T02:06:36;10.45;;;6.38;;
56419;SDS011;42323;52.170;7.538;2023-10-31T02:09:03;7.82;;;5.90;;
56419;SDS011;42323;52.170;7.538;2023-10-31T02:11:29;7.38;;;5.35;;
56419;SDS011;42323;52.170;7.538;2023-10-31T02:13:55;7.63;;;5.22;;
56419;SDS011;42323;52.170;7.538;2023-10-31T02:16:22;7.05;;;5.05;;
56419;SDS011;42323;52.170;7.538;2023-10-31T02:18:48;7.43;;;4.50;;
56419;SDS011;42323;52.170;7.538;2023-10-31T02:21:15;4.47;;;3.22;;
56419;SDS011;42323;52.170;7.538;2023-10-31T02:23:42;4.10;;;2.83;;
56419;SDS011;42323;52.170;7.538;2023-10-31T02:26:09;2.88;;;2.30;;
56419;SDS011;42323;52.170;7.538;2023-10-31T02:28:38;2.50;;;2.00;;
56419;SDS011;42323;52.170;7.538;2023-10-31T02:31:07;3.20;;;2.00;;
56419;SDS011;42323;52.170;7.538;2023-10-31T02:33:33;3.30;;;1.60;;
56419;SDS011;42323;52.170;7.538;2023-10-31T02:36:00;2.13;;;1.33;;
56419;SDS011;42323;52.170;7.538;2023-10-31T02:38:26;1.80;;;1.10;;
56419;SDS011;42323;52.170;7.538;2023-10-31T02:40:52;2.90;;;1.10;;
56419;SDS011;42323;52.170;7.538;2023-10-31T02:43:19;1.50;;;0.93;;
56419;SDS011;42323;52.170;7.538;2023-10-31T02:45:45;1.67;;;1.00;;
56419;SDS011;42323;52.170;7.538;2023-10-31T02:48:12;2.10;;;1.08;;
56419;SDS011;42323;52.170;7.538;2023-10-31T02:50:38;2.87;;;1.10;;
56419;SDS011;42323;52.170;7.538;2023-10-31T02:53:05;2.08;;;1.30;;
56419;SDS011;42323;52.170;7.538;2023-10-31T02:55:31;1.98;;;1.27;;
56419;SDS011;42323;52.170;7.538;2023-10-31T02:57:58;1.90;;;1.10;;
56419;SDS011;42323;52.170;7.538;2023-10-31T03:00:24;2.10;;;0.90;;
56419;SDS011;42323;52.170;7.538;2023-10-31T03:02:51;2.35;;;0.90;;
56419;SDS011;42323;52.170;7.538;2023-10-31T03:05:18;1.48;;;0.90;;
56419;SDS011;42323;52.170;7.538;2023-10-31T03:07:45;1.40;;;0.98;;
56419;SDS011;42323;52.170;7.538;2023-10-31T03:10:11;2.20;;;1.20;;
56419;SDS011;42323;52.170;7.538;2023-10-31T03:12:37;3.80;;;1.60;;
56419;SDS011;42323;52.170;7.538;2023-10-31T03:15:04;1.60;;;1.20;;
56419;SDS011;42323;52.170;7.538;2023-10-31T03:17:30;2.58;;;1.30;;
56419;SDS011;42323;52.170;7.538;2023-10-31T03:19:57;2.20;;;1.03;;
56419;SDS011;42323;52.170;7.538;2023-10-31T03:22:23;1.92;;;1.23;;
56419;SDS011;42323;52.170;7.538;2023-10-31T03:24:50;3.25;;;1.20;;
56419;SDS011;42323;52.170;7.538;2023-10-31T03:27:16;2.65;;;1.40;;
56419;SDS011;42323;52.170;7.538;2023-10-31T03:29:43;2.45;;;1.48;;
56419;SDS011;42323;52.170;7.538;2023-10-31T03:32:09;3.53;;;1.38;;
56419;SDS011;42323;52.170;7.538;2023-10-31T03:34:36;2.35;;;1.73;;
56419;SDS011;42323;52.170;7.538;2023-10-31T03:37:04;2.22;;;2.00;;
56419;SDS011;42323;52.170;7.538;2023-10-31T03:39:30;4.45;;;2.40;;
56419;SDS011;42323;52.170;7.538;2023-10-31T03:41:57;3.35;;;1.90;;
56419;SDS011;42323;52.170;7.538;2023-10-31T03:44:23;4.38;;;2.00;;
56419;SDS011;42323;52.170;7.538;2023-10-31T03:46:49;2.65;;;1.85;;
56419;SDS011;42323;52.170;7.538;2023-10-31T03:49:16;4.63;;;2.40;;
56419;SDS011;42323;52.170;7.538;2023-10-31T03:51:42;4.03;;;2.10;;
56419;SDS011;42323;52.170;7.538;2023-10-31T03:54:09;4.47;;;2.40;;
56419;SDS011;42323;52.170;7.538;2023-10-31T03:56:39;6.73;;;2.50;;
56419;SDS011;42323;52.170;7.538;2023-10-31T03:59:06;6.85;;;2.92;;
56419;SDS011;42323;52.170;7.538;2023-10-31T04:01:32;6.15;;;3.63;;
56419;SDS011;42323;52.170;7.538;2023-10-31T04:03:59;6.50;;;3.80;;
56419;SDS011;42323;52.170;7.538;2023-10-31T04:06:25;7.72;;;3.80;;
56419;SDS011;42323;52.170;7.538;2023-10-31T04:08:52;9.20;;;4.30;;
56419;SDS011;42323;52.170;7.538;2023-10-31T04:11:18;8.20;;;4.80;;
56419;SDS011;42323;52.170;7.538;2023-10-31T04:13:45;8.80;;;4.38;;
56419;SDS011;42323;52.170;7.538;2023-10-31T04:16:11;7.97;;;5.00;;
56419;SDS011;42323;52.170;7.538;2023-10-31T04:18:38;7.63;;;4.97;;
56419;SDS011;42323;52.170;7.538;2023-10-31T04:21:04;8.88;;;5.15;;
56419;SDS011;42323;52.170;7.538;2023-10-31T04:23:30;9.83;;;5.83;;
56419;SDS011;42323;52.170;7.538;2023-10-31T04:25:57;9.17;;;5.43;;
56419;SDS011;42323;52.170;7.538;2023-10-31T04:28:23;8.13;;;5.57;;
56419;SDS011;42323;52.170;7.538;2023-10-31T04:30:50;10.18;;;5.63;;
56419;SDS011;42323;52.170;7.538;2023-10-31T04:33:16;9.77;;;6.30;;
56419;SDS011;42323;52.170;7.538;2023-10-31T04:35:43;9.35;;;5.57;;
56419;SDS011;42323;52.170;7.538;2023-10-31T04:38:09;9.85;;;5.80;;
56419;SDS011;42323;52.170;7.538;2023-10-31T04:40:35;11.35;;;6.38;;
56419;SDS011;42323;52.170;7.538;2023-10-31T04:43:02;12.30;;;6.43;;
56419;SDS011;42323;52.170;7.538;2023-10-31T04:45:28;9.93;;;6.07;;
56419;SDS011;42323;52.170;7.538;2023-10-31T04:47:54;11.00;;;6.22;;
56419;SDS011;42323;52.170;7.538;2023-10-31T04:50:21;11.13;;;5.97;;
56419;SDS011;42323;52.170;7.538;2023-10-31T04:52:48;12.77;;;6.40;;
56419;SDS011;42323;52.170;7.538;2023-10-31T04:55:14;12.70;;;6.68;;
56419;SDS011;42323;52.170;7.538;2023-10-31T04:57:43;10.57;;;5.57;;
56419;SDS011;42323;52.170;7.538;2023-10-31T05:00:10;11.77;;;6.22;;
56419;SDS011;42323;52.170;7.538;2023-10-31T05:02:36;10.40;;;6.00;;
56419;SDS011;42323;52.170;7.538;2023-10-31T05:05:03;10.27;;;5.80;;
56419;SDS011;42323;52.170;7.538;2023-10-31T05:07:30;9.40;;;5.68;;
56419;SDS011;42323;52.170;7.538;2023-10-31T05:09:59;9.80;;;5.63;;
56419;SDS011;42323;52.170;7.538;2023-10-31T05:12:26;8.38;;;5.38;;
56419;SDS011;42323;52.170;7.538;2023-10-31T05:14:52;7.83;;;4.73;;
56419;SDS011;42323;52.170;7.538;2023-10-31T05:17:19;6.63;;;4.10;;
56419;SDS011;42323;52.170;7.538;2023-10-31T05:19:46;7.63;;;4.43;;
56419;SDS011;42323;52.170;7.538;2023-10-31T05:22:12;6.28;;;3.92;;
56419;SDS011;42323;52.170;7.538;2023-10-31T05:24:38;5.80;;;3.83;;
56419;SDS011;42323;52.170;7.538;2023-10-31T05:32:21;6.47;;;3.90;;
56419;SDS011;42323;52.170;7.538;2023-10-31T05:34:48;7.33;;;3.97;;
56419;SDS011;42323;52.170;7.538;2023-10-31T05:37:14;9.20;;;4.55;;
56419;SDS011;42323;52.170;7.538;2023-10-31T05:42:14;6.22;;;3.50;;
56419;SDS011;42323;52.170;7.538;2023-10-31T05:44:40;10.50;;;4.97;;
56419;SDS011;42323;52.170;7.538;2023-10-31T05:49:42;7.20;;;3.80;;
56419;SDS011;42323;52.170;7.538;2023-10-31T05:54:50;4.55;;;2.97;;
56419;SDS011;42323;52.170;7.538;2023-10-31T05:59:52;4.13;;;2.53;;
56419;SDS011;42323;52.170;7.538;2023-10-31T06:02:18;4.40;;;2.50;;
56419;SDS011;42323;52.170;7.538;2023-10-31T06:04:45;6.03;;;2.55;;
56419;SDS011;42323;52.170;7.538;2023-10-31T06:07:11;3.95;;;2.60;;
56419;SDS011;42323;52.170;7.538;2023-10-31T06:09:38;3.97;;;2.38;;
56419;SDS011;42323;52.170;7.538;2023-10-31T06:12:04;4.07;;;2.20;;
56419;SDS011;42323;52.170;7.538;2023-10-31T06:14:31;3.70;;;2.40;;
56419;SDS011;42323;52.170;7.538;2023-10-31T06:16:58;4.30;;;2.30;;
56419;SDS011;42323;52.170;7.538;2023-10-31T06:19:25;4.40;;;2.50;;
56419;SDS011;42323;52.170;7.538;2023-10-31T06:21:52;3.93;;;2.13;;
56419;SDS011;42323;52.170;7.538;2023-10-31T06:24:18;3.38;;;2.20;;
56419;SDS011;42323;52.170;7.538;2023-10-31T06:26:44;5.00;;;2.67;;
56419;SDS011;42323;52.170;7.538;2023-10-31T06:29:11;3.58;;;2.30;;
56419;SDS011;42323;52.170;7.538;2023-10-31T06:31:57;6.80;;;3.30;;
56419;SDS011;42323;52.170;7.538;2023-10-31T06:34:24;7.15;;;3.35;;
56419;SDS011;42323;52.170;7.538;2023-10-31T06:39:33;4.88;;;2.78;;
56419;SDS011;42323;52.170;7.538;2023-10-31T06:44:36;5.68;;;2.92;;
56419;SDS011;42323;52.170;7.538;2023-10-31T06:47:02;4.53;;;3.33;;
56419;SDS011;42323;52.170;7.538;2023-10-31T06:52:11;6.00;;;3.53;;
56419;SDS011;42323;52.170;7.538;2023-10-31T06:54:37;4.93;;;3.40;;
56419;SDS011;42323;52.170;7.538;2023-10-31T06:57:03;4.90;;;3.28;;
56419;SDS011;42323;52.170;7.538;2023-10-31T07:02:05;5.07;;;3.42;;
56419;SDS011;42323;52.170;7.538;2023-10-31T07:04:32;5.75;;;3.60;;
56419;SDS011;42323;52.170;7.538;2023-10-31T07:06:59;4.70;;;3.10;;
56419;SDS011;42323;52.170;7.538;2023-10-31T07:09:25;5.30;;;3.28;;
56419;SDS011;42323;52.170;7.538;2023-10-31T07:11:52;5.65;;;3.15;;
56419;SDS011;42323;52.170;7.538;2023-10-31T07:14:18;5.85;;;3.47;;
56419;SDS011;42323;52.170;7.538;2023-10-31T07:16:45;4.90;;;3.20;;
56419;SDS011;42323;52.170;7.538;2023-10-31T07:19:12;5.00;;;3.53;;
56419;SDS011;42323;52.170;7.538;2023-10-31T07:21:38;4.97;;;3.27;;
56419;SDS011;42323;52.170;7.538;2023-10-31T07:24:05;5.63;;;3.60;;
56419;SDS011;42323;52.170;7.538;2023-10-31T07:26:31;5.90;;;3.20;;
56419;SDS011;42323;52.170;7.538;2023-10-31T07:28:58;4.40;;;3.25;;
56419;SDS011;42323;52.170;7.538;2023-10-31T07:31:24;6.45;;;4.15;;
56419;SDS011;42323;52.170;7.538;2023-10-31T07:33:50;4.82;;;3.22;;
56419;SDS011;42323;52.170;7.538;2023-10-31T07:36:17;4.25;;;3.20;;
56419;SDS011;42323;52.170;7.538;2023-10-31T07:38:43;3.83;;;2.90;;
56419;SDS011;42323;52.170;7.538;2023-10-31T07:41:10;4.77;;;2.93;;
56419;SDS011;42323;52.170;7.538;2023-10-31T07:43:38;4.38;;;2.88;;
56419;SDS011;42323;52.170;7.538;2023-10-31T07:46:04;3.67;;;2.83;;
56419;SDS011;42323;52.170;7.538;2023-10-31T07:48:31;4.60;;;2.83;;
56419;SDS011;42323;52.170;7.538;2023-10-31T07:50:57;4.10;;;2.65;;
56419;SDS011;42323;52.170;7.538;2023-10-31T07:53:24;3.90;;;2.50;;
56419;SDS011;42323;52.170;7.538;2023-10-31T07:55:50;3.65;;;2.40;;
56419;SDS011;42323;52.170;7.538;2023-10-31T07:58:17;5.25;;;2.80;;
56419;SDS011;42323;52.170;7.538;2023-10-31T08:00:43;3.75;;;2.40;;
56419;SDS011;42323;52.170;7.538;2023-10-31T08:03:10;4.30;;;2.50;;
56419;SDS011;42323;52.170;7.538;2023-10-31T08:05:36;3.50;;;2.40;;
56419;SDS011;42323;52.170;7.538;2023-10-31T08:08:03;3.97;;;2.80;;
56419;SDS011;42323;52.170;7.538;2023-10-31T08:10:29;3.83;;;2.63;;
56419;SDS011;42323;52.170;7.538;2023-10-31T08:12:56;3.10;;;2.38;;
56419;SDS011;42323;52.170;7.538;2023-10-31T08:15:22;3.72;;;2.50;;
56419;SDS011;42323;52.170;7.538;2023-10-31T08:17:49;4.90;;;2.92;;
56419;SDS011;42323;52.170;7.538;2023-10-31T08:20:15;4.82;;;2.90;;
56419;SDS011;42323;52.170;7.538;2023-10-31T08:22:42;5.40;;;3.13;;
56419;SDS011;42323;52.170;7.538;2023-10-31T08:25:11;4.33;;;3.00;;
56419;SDS011;42323;52.170;7.538;2023-10-31T08:27:38;5.93;;;3.37;;
56419;SDS011;42323;52.170;7.538;2023-10-31T08:30:05;4.33;;;2.87;;
56419;SDS011;42323;52.170;7.538;2023-10-31T08:35:01;4.03;;;2.85;;
56419;SDS011;42323;52.170;7.538;2023-10-31T08:37:27;5.15;;;3.20;;
56419;SDS011;42323;52.170;7.538;2023-10-31T08:39:54;5.53;;;3.10;;
56419;SDS011;42323;52.170;7.538;2023-10-31T08:42:20;4.13;;;2.80;;
56419;SDS011;42323;52.170;7.538;2023-10-31T08:44:46;5.60;;;3.17;;
56419;SDS011;42323;52.170;7.538;2023-10-31T08:47:13;3.97;;;2.70;;
56419;SDS011;42323;52.170;7.538;2023-10-31T08:49:39;5.32;;;3.10;;
56419;SDS011;42323;52.170;7.538;2023-10-31T08:52:06;5.35;;;3.17;;
56419;SDS011;42323;52.170;7.538;2023-10-31T08:54:32;3.50;;;2.70;;
56419;SDS011;42323;52.170;7.538;2023-10-31T08:56:58;4.43;;;2.90;;
56419;SDS011;42323;52.170;7.538;2023-10-31T08:59:25;4.63;;;2.80;;
56419;SDS011;42323;52.170;7.538;2023-10-31T09:01:51;4.20;;;2.50;;
56419;SDS011;42323;52.170;7.538;2023-10-31T09:04:18;4.00;;;2.63;;
56419;SDS011;42323;52.170;7.538;2023-10-31T09:06:44;4.60;;;2.65;;
56419;SDS011;42323;52.170;7.538;2023-10-31T09:09:11;4.47;;;2.60;;
56419;SDS011;42323;52.170;7.538;2023-10-31T09:11:37;3.95;;;2.53;;
56419;SDS011;42323;52.170;7.538;2023-10-31T09:16:39;4.75;;;2.70;;
56419;SDS011;42323;52.170;7.538;2023-10-31T09:19:05;5.15;;;2.80;;
56419;SDS011;42323;52.170;7.538;2023-10-31T09:21:32;3.90;;;2.60;;
56419;SDS011;42323;52.170;7.538;2023-10-31T09:23:59;4.63;;;2.60;;
56419;SDS011;42323;52.170;7.538;2023-10-31T09:26:25;5.22;;;2.70;;
56419;SDS011;42323;52.170;7.538;2023-10-31T09:28:52;5.00;;;2.90;;
56419;SDS011;42323;52.170;7.538;2023-10-31T09:31:18;6.43;;;3.08;;
56419;SDS011;42323;52.170;7.538;2023-10-31T09:34:08;4.65;;;3.03;;
56419;SDS011;42323;52.170;7.538;2023-10-31T09:39:03;5.30;;;3.10;;
56419;SDS011;42323;52.170;7.538;2023-10-31T09:41:29;5.50;;;3.20;;
56419;SDS011;42323;52.170;7.538;2023-10-31T09:43:58;5.13;;;3.30;;
56419;SDS011;42323;52.170;7.538;2023-10-31T09:46:26;6.60;;;3.80;;
56419;SDS011;42323;52.170;7.538;2023-10-31T09:48:54;6.15;;;3.65;;
56419;SDS011;42323;52.170;7.538;2023-10-31T09:51:21;5.28;;;3.95;;
56419;SDS011;42323;52.170;7.538;2023-10-31T09:53:48;6.93;;;4.17;;
56419;SDS011;42323;52.170;7.538;2023-10-31T09:56:16;6.60;;;3.80;;
56419;SDS011;42323;52.170;7.538;2023-10-31T09:58:43;7.05;;;4.20;;
56419;SDS011;42323;52.170;7.538;2023-10-31T10:01:10;6.68;;;4.20;;
56419;SDS011;42323;52.170;7.538;2023-10-31T10:03:37;5.97;;;4.35;;
56419;SDS011;42323;52.170;7.538;2023-10-31T10:06:04;6.40;;;4.32;;
56419;SDS011;42323;52.170;7.538;2023-10-31T10:08:30;9.30;;;4.97;;
56419;SDS011;42323;52.170;7.538;2023-10-31T10:10:57;8.93;;;4.78;;
56419;SDS011;42323;52.170;7.538;2023-10-31T10:13:23;11.10;;;5.93;;
56419;SDS011;42323;52.170;7.538;2023-10-31T10:15:51;9.70;;;5.45;;
56419;SDS011;42323;52.170;7.538;2023-10-31T10:18:25;8.65;;;5.20;;
56419;SDS011;42323;52.170;7.538;2023-10-31T10:20:55;9.00;;;5.00;;
56419;SDS011;42323;52.170;7.538;2023-10-31T10:23:23;7.63;;;4.95;;
56419;SDS011;42323;52.170;7.538;2023-10-31T10:25:50;7.72;;;4.78;;
56419;SDS011;42323;52.170;7.538;2023-10-31T10:28:17;8.02;;;4.90;;
56419;SDS011;42323;52.170;7.538;2023-10-31T10:30:46;9.40;;;5.20;;
56419;SDS011;42323;52.170;7.538;2023-10-31T10:33:14;8.38;;;4.32;;
56419;SDS011;42323;52.170;7.538;2023-10-31T10:35:44;8.18;;;4.40;;
56419;SDS011;42323;52.170;7.538;2023-10-31T10:38:11;7.30;;;4.40;;
56419;SDS011;42323;52.170;7.538;2023-10-31T10:40:39;8.38;;;4.50;;
56419;SDS011;42323;52.170;7.538;2023-10-31T10:43:06;9.23;;;5.25;;
56419;SDS011;42323;52.170;7.538;2023-10-31T10:45:36;8.43;;;4.90;;
56419;SDS011;42323;52.170;7.538;2023-10-31T10:48:05;8.32;;;5.20;;
56419;SDS011;42323;52.170;7.538;2023-10-31T10:50:35;9.05;;;5.20;;
56419;SDS011;42323;52.170;7.538;2023-10-31T10:55:38;9.70;;;5.67;;
56419;SDS011;42323;52.170;7.538;2023-10-31T10:58:08;9.43;;;5.63;;
56419;SDS011;42323;52.170;7.538;2023-10-31T11:00:39;7.45;;;4.70;;
56419;SDS011;42323;52.170;7.538;2023-10-31T11:03:06;5.85;;;4.20;;
56419;SDS011;42323;52.170;7.538;2023-10-31T11:05:33;8.32;;;5.18;;
56419;SDS011;42323;52.170;7.538;2023-10-31T11:08:00;7.50;;;4.65;;
56419;SDS011;42323;52.170;7.538;2023-10-31T11:10:27;8.00;;;5.18;;
56419;SDS011;42323;52.170;7.538;2023-10-31T11:12:55;7.60;;;4.82;;
56419;SDS011;42323;52.170;7.538;2023-10-31T11:15:23;6.43;;;4.53;;
56419;SDS011;42323;52.170;7.538;2023-10-31T11:17:50;6.82;;;4.55;;
56419;SDS011;42323;52.170;7.538;2023-10-31T11:20:16;6.97;;;4.63;;
56419;SDS011;42323;52.170;7.538;2023-10-31T11:22:44;4.97;;;3.85;;
56419;SDS011;42323;52.170;7.538;2023-10-31T11:25:14;7.45;;;4.10;;
56419;SDS011;42323;52.170;7.538;2023-10-31T11:27:54;6.25;;;4.00;;
56419;SDS011;42323;52.170;7.538;2023-10-31T11:30:28;5.38;;;3.40;;
56419;SDS011;42323;52.170;7.538;2023-10-31T11:32:55;5.70;;;3.73;;
56419;SDS011;42323;52.170;7.538;2023-10-31T11:35:22;4.47;;;3.38;;
56419;SDS011;42323;52.170;7.538;2023-10-31T11:37:50;4.45;;;3.40;;
56419;SDS011;42323;52.170;7.538;2023-10-31T11:40:26;4.75;;;3.13;;
56419;SDS011;42323;52.170;7.538;2023-10-31T11:42:53;4.22;;;3.55;;
56419;SDS011;42323;52.170;7.538;2023-10-31T11:47:52;5.80;;;3.70;;
56419;SDS011;42323;52.170;7.538;2023-10-31T11:50:19;6.78;;;3.05;;
56419;SDS011;42323;52.170;7.538;2023-10-31T11:55:26;3.55;;;2.45;;
56419;SDS011;42323;52.170;7.538;2023-10-31T11:57:53;3.70;;;2.30;;
56419;SDS011;42323;52.170;7.538;2023-10-31T12:00:20;3.60;;;2.35;;
56419;SDS011;42323;52.170;7.538;2023-10-31T12:02:57;5.60;;;2.77;;
56419;SDS011;42323;52.170;7.538;2023-10-31T12:05:23;3.38;;;2.17;;
56419;SDS011;42323;52.170;7.538;2023-10-31T12:07:49;6.03;;;3.03;;
56419;SDS011;42323;52.170;7.538;2023-10-31T12:10:25;4.38;;;2.50;;
56419;SDS011;42323;52.170;7.538;2023-10-31T12:12:57;5.07;;;3.03;;
56419;SDS011;42323;52.170;7.538;2023-10-31T12:15:24;3.93;;;2.43;;
56419;SDS011;42323;52.170;7.538;2023-10-31T12:17:51;5.32;;;2.90;;
56419;SDS011;42323;52.170;7.538;2023-10-31T12:20:17;5.47;;;2.80;;
56419;SDS011;42323;52.170;7.538;2023-10-31T12:22:44;3.85;;;2.70;;
56419;SDS011;42323;52.170;7.538;2023-10-31T12:25:10;5.55;;;2.92;;
56419;SDS011;42323;52.170;7.538;2023-10-31T12:27:47;5.05;;;2.50;;
56419;SDS011;42323;52.170;7.538;2023-10-31T12:30:16;4.68;;;2.97;;
56419;SDS011;42323;52.170;7.538;2023-10-31T12:32:43;5.70;;;2.85;;
56419;SDS011;42323;52.170;7.538;2023-10-31T12:35:13;5.50;;;2.93;;
56419;SDS011;42323;52.170;7.538;2023-10-31T12:37:43;3.67;;;2.63;;
56419;SDS011;42323;52.170;7.538;2023-10-31T12:40:11;5.97;;;3.43;;
56419;SDS011;42323;52.170;7.538;2023-10-31T12:42:38;5.00;;;3.50;;
56419;SDS011;42323;52.170;7.538;2023-10-31T12:45:05;5.95;;;3.90;;
56419;SDS011;42323;52.170;7.538;2023-10-31T12:47:31;4.72;;;3.20;;
56419;SDS011;42323;52.170;7.538;2023-10-31T12:52:50;5.43;;;3.67;;
56419;SDS011;42323;52.170;7.538;2023-10-31T12:55:26;5.18;;;3.40;;
56419;SDS011;42323;52.170;7.538;2023-10-31T12:57:54;6.43;;;3.40;;
56419;SDS011;42323;52.170;7.538;2023-10-31T13:00:22;6.38;;;4.10;;
56419;SDS011;42323;52.170;7.538;2023-10-31T13:02:58;5.47;;;3.90;;
56419;SDS011;42323;52.170;7.538;2023-10-31T13:05:26;6.60;;;3.73;;
56419;SDS011;42323;52.170;7.538;2023-10-31T13:07:53;5.97;;;3.50;;
56419;SDS011;42323;52.170;7.538;2023-10-31T13:10:21;8.48;;;4.05;;
56419;SDS011;42323;52.170;7.538;2023-10-31T13:12:49;6.97;;;4.35;;
56419;SDS011;42323;52.170;7.538;2023-10-31T13:15:16;10.45;;;5.25;;
56419;SDS011;42323;52.170;7.538;2023-10-31T13:17:45;7.33;;;4.20;;
56419;SDS011;42323;52.170;7.538;2023-10-31T13:20:12;8.43;;;4.50;;
56419;SDS011;42323;52.170;7.538;2023-10-31T13:22:39;10.13;;;4.75;;
56419;SDS011;42323;52.170;7.538;2023-10-31T13:25:07;8.37;;;4.90;;
56419;SDS011;42323;52.170;7.538;2023-10-31T13:27:34;8.32;;;4.65;;
56419;SDS011;42323;52.170;7.538;2023-10-31T13:30:04;9.48;;;5.45;;
56419;SDS011;42323;52.170;7.538;2023-10-31T13:32:31;8.52;;;5.30;;
56419;SDS011;42323;52.170;7.538;2023-10-31T13:34:57;9.07;;;5.65;;
56419;SDS011;42323;52.170;7.538;2023-10-31T13:37:24;9.40;;;5.63;;
56419;SDS011;42323;52.170;7.538;2023-10-31T13:39:51;9.95;;;5.97;;
56419;SDS011;42323;52.170;7.538;2023-10-31T13:42:17;11.63;;;7.22;;
56419;SDS011;42323;52.170;7.538;2023-10-31T13:44:44;12.85;;;7.10;;
56419;SDS011;42323;52.170;7.538;2023-10-31T13:47:10;12.30;;;7.80;;
56419;SDS011;42323;52.170;7.538;2023-10-31T13:49:37;12.77;;;7.80;;
56419;SDS011;42323;52.170;7.538;2023-10-31T13:52:03;12.82;;;8.35;;
56419;SDS011;42323;52.170;7.538;2023-10-31T13:54:34;15.60;;;8.55;;
56419;SDS011;42323;52.170;7.538;2023-10-31T13:57:00;15.05;;;8.85;;
56419;SDS011;42323;52.170;7.538;2023-10-31T13:59:26;12.60;;;8.15;;
56419;SDS011;42323;52.170;7.538;2023-10-31T14:01:53;13.33;;;7.83;;
56419;SDS011;42323;52.170;7.538;2023-10-31T14:04:20;13.23;;;8.17;;
56419;SDS011;42323;52.170;7.538;2023-10-31T14:06:47;14.13;;;8.23;;
56419;SDS011;42323;52.170;7.538;2023-10-31T14:09:14;14.07;;;8.65;;
56419;SDS011;42323;52.170;7.538;2023-10-31T14:11:41;15.82;;;9.20;;
56419;SDS011;42323;52.170;7.538;2023-10-31T14:14:08;15.10;;;8.95;;
56419;SDS011;42323;52.170;7.538;2023-10-31T14:16:40;16.90;;;9.13;;
56419;SDS011;42323;52.170;7.538;2023-10-31T14:19:06;17.20;;;9.50;;
56419;SDS011;42323;52.170;7.538;2023-10-31T14:21:33;17.17;;;9.30;;
56419;SDS011;42323;52.170;7.538;2023-10-31T14:24:00;14.82;;;9.48;;
56419;SDS011;42323;52.170;7.538;2023-10-31T14:26:37;18.17;;;9.93;;
56419;SDS011;42323;52.170;7.538;2023-10-31T14:29:04;18.85;;;10.15;;
56419;SDS011;42323;52.170;7.538;2023-10-31T14:31:31;14.15;;;8.48;;
56419;SDS011;42323;52.170;7.538;2023-10-31T14:33:57;14.27;;;8.15;;
56419;SDS011;42323;52.170;7.538;2023-10-31T14:36:24;11.80;;;7.03;;
56419;SDS011;42323;52.170;7.538;2023-10-31T14:38:50;9.43;;;5.77;;
56419;SDS011;42323;52.170;7.538;2023-10-31T14:41:17;7.07;;;5.00;;
56419;SDS011;42323;52.170;7.538;2023-10-31T14:43:43;6.60;;;4.00;;
56419;SDS011;42323;52.170;7.538;2023-10-31T14:46:10;6.85;;;3.97;;
56419;SDS011;42323;52.170;7.538;2023-10-31T14:48:36;6.70;;;3.60;;
56419;SDS011;42323;52.170;7.538;2023-10-31T14:51:03;6.22;;;4.28;;
56419;SDS011;42323;52.170;7.538;2023-10-31T14:53:30;5.75;;;3.80;;
56419;SDS011;42323;52.170;7.538;2023-10-31T14:55:56;5.82;;;3.63;;
56419;SDS011;42323;52.170;7.538;2023-10-31T14:58:23;5.00;;;3.45;;
56419;SDS011;42323;52.170;7.538;2023-10-31T15:00:49;3.78;;;2.60;;
56419;SDS011;42323;52.170;7.538;2023-10-31T15:03:17;3.70;;;2.55;;
56419;SDS011;42323;52.170;7.538;2023-10-31T15:05:44;3.95;;;2.33;;
56419;SDS011;42323;52.170;7.538;2023-10-31T15:08:10;3.05;;;2.20;;
56419;SDS011;42323;52.170;7.538;2023-10-31T15:10:37;3.15;;;2.10;;
56419;SDS011;42323;52.170;7.538;2023-10-31T15:13:03;3.20;;;2.20;;
56419;SDS011;42323;52.170;7.538;2023-10-31T15:15:32;3.38;;;2.17;;
56419;SDS011;42323;52.170;7.538;2023-10-31T15:17:58;3.45;;;2.47;;
56419;SDS011;42323;52.170;7.538;2023-10-31T15:20:27;4.55;;;2.60;;
56419;SDS011;42323;52.170;7.538;2023-10-31T15:22:53;5.35;;;2.60;;
56419;SDS011;42323;52.170;7.538;2023-10-31T15:25:20;4.15;;;2.28;;
56419;SDS011;42323;52.170;7.538;2023-10-31T15:27:46;5.40;;;2.50;;
56419;SDS011;42323;52.170;7.538;2023-10-31T15:30:13;3.57;;;2.20;;